sensor_id;sensor_type;location;lat;lon;timestamp;pressure;altitude;pressure_sealevel;temperature;humidity
41254;BME280;26987;59.928;30.306;2022-07-23T00:00:45;101106.19;;;20.24;85.41
41254;BME280;26987;59.928;30.306;2022-07-23T00:03:15;101103.16;;;20.15;85.81
41254;BME280;26987;59.928;30.306;2022-07-23T00:05:43;101106.44;;;20.17;85.97
41254;BME280;26987;59.928;30.306;2022-07-23T00:08:11;101115.97;;;20.15;86.27
41254;BME280;26987;59.928;30.306;2022-07-23T00:10:40;101119.75;;;20.09;86.43
41254;BME280;26987;59.928;30.306;2022-07-23T00:13:08;101113.72;;;20.07;86.79
41254;BME280;26987;59.928;30.306;2022-07-23T00:15:36;101096.41;;;19.85;86.80
41254;BME280;26987;59.928;30.306;2022-07-23T00:18:04;101116.91;;;19.98;87.12
41254;BME280;26987;59.928;30.306;2022-07-23T00:20:33;101114.16;;;19.93;87.56
41254;BME280;26987;59.928;30.306;2022-07-23T00:23:01;101116.34;;;19.96;87.67
41254;BME280;26987;59.928;30.306;2022-07-23T00:25:29;101129.38;;;19.94;87.92
41254;BME280;26987;59.928;30.306;2022-07-23T00:27:57;101128.84;;;19.92;88.17
41254;BME280;26987;59.928;30.306;2022-07-23T00:30:25;101120.88;;;19.85;88.49
41254;BME280;26987;59.928;30.306;2022-07-23T00:32:59;101130.72;;;19.86;88.80
41254;BME280;26987;59.928;30.306;2022-07-23T00:35:30;101125.53;;;19.85;89.08
41254;BME280;26987;59.928;30.306;2022-07-23T00:38:00;101129.56;;;19.82;89.06
41254;BME280;26987;59.928;30.306;2022-07-23T00:40:29;101125.78;;;19.83;89.06
41254;BME280;26987;59.928;30.306;2022-07-23T00:42:58;101136.94;;;19.82;89.26
41254;BME280;26987;59.928;30.306;2022-07-23T00:45:27;101134.72;;;19.78;89.67
41254;BME280;26987;59.928;30.306;2022-07-23T00:47:55;101128.16;;;19.74;89.72
41254;BME280;26987;59.928;30.306;2022-07-23T00:50:23;101125.97;;;19.71;89.87
41254;BME280;26987;59.928;30.306;2022-07-23T00:52:52;101116.38;;;19.63;90.07
41254;BME280;26987;59.928;30.306;2022-07-23T00:55:21;101130.00;;;19.69;90.23
41254;BME280;26987;59.928;30.306;2022-07-23T00:57:50;101123.16;;;19.61;90.24
41254;BME280;26987;59.928;30.306;2022-07-23T01:00:18;101130.22;;;19.62;90.59
41254;BME280;26987;59.928;30.306;2022-07-23T01:02:46;101128.59;;;19.61;90.73
41254;BME280;26987;59.928;30.306;2022-07-23T01:05:15;101127.50;;;19.62;90.53
41254;BME280;26987;59.928;30.306;2022-07-23T01:07:44;101131.06;;;19.62;90.39
41254;BME280;26987;59.928;30.306;2022-07-23T01:10:13;101135.66;;;19.62;90.52
41254;BME280;26987;59.928;30.306;2022-07-23T01:13:03;101130.75;;;19.59;90.59
41254;BME280;26987;59.928;30.306;2022-07-23T01:15:32;101126.69;;;19.61;90.82
41254;BME280;26987;59.928;30.306;2022-07-23T01:18:00;101126.41;;;19.58;90.81
41254;BME280;26987;59.928;30.306;2022-07-23T01:20:29;101113.56;;;19.53;90.93
41254;BME280;26987;59.928;30.306;2022-07-23T01:22:59;101122.00;;;19.57;91.17
41254;BME280;26987;59.928;30.306;2022-07-23T01:25:27;101111.13;;;19.57;91.29
41254;BME280;26987;59.928;30.306;2022-07-23T01:28:03;101116.84;;;19.55;91.30
41254;BME280;26987;59.928;30.306;2022-07-23T01:30:31;101116.56;;;19.57;91.78
41254;BME280;26987;59.928;30.306;2022-07-23T01:33:01;101111.13;;;19.57;91.63
41254;BME280;26987;59.928;30.306;2022-07-23T01:35:31;101119.28;;;19.57;91.85
41254;BME280;26987;59.928;30.306;2022-07-23T01:38:05;101108.69;;;19.55;91.74
41254;BME280;26987;59.928;30.306;2022-07-23T01:40:33;101114.44;;;19.59;91.67
41254;BME280;26987;59.928;30.306;2022-07-23T01:43:01;101111.44;;;19.60;91.52
41254;BME280;26987;59.928;30.306;2022-07-23T01:45:31;101104.06;;;19.56;91.60
41254;BME280;26987;59.928;30.306;2022-07-23T01:47:59;101112.03;;;19.62;91.48
41254;BME280;26987;59.928;30.306;2022-07-23T01:50:27;101104.16;;;19.66;91.13
41254;BME280;26987;59.928;30.306;2022-07-23T01:53:23;101112.66;;;19.75;90.88
41254;BME280;26987;59.928;30.306;2022-07-23T01:55:51;101108.88;;;19.76;90.60
41254;BME280;26987;59.928;30.306;2022-07-23T01:58:19;101110.78;;;19.81;90.30
41254;BME280;26987;59.928;30.306;2022-07-23T02:00:48;101109.75;;;19.87;90.26
41254;BME280;26987;59.928;30.306;2022-07-23T02:03:16;101105.16;;;19.92;89.70
41254;BME280;26987;59.928;30.306;2022-07-23T02:05:43;101104.94;;;19.99;89.00
41254;BME280;26987;59.928;30.306;2022-07-23T02:08:12;101101.78;;;20.13;88.38
41254;BME280;26987;59.928;30.306;2022-07-23T02:10:41;101111.16;;;20.33;87.13
41254;BME280;26987;59.928;30.306;2022-07-23T02:13:09;101103.91;;;20.54;86.02
41254;BME280;26987;59.928;30.306;2022-07-23T02:15:37;101101.00;;;20.82;84.37
41254;BME280;26987;59.928;30.306;2022-07-23T02:18:05;101072.97;;;20.86;83.11
41254;BME280;26987;59.928;30.306;2022-07-23T02:20:34;101096.78;;;21.17;82.07
41254;BME280;26987;59.928;30.306;2022-07-23T02:23:05;101090.78;;;21.36;80.85
41254;BME280;26987;59.928;30.306;2022-07-23T02:25:34;101092.69;;;21.61;79.37
41254;BME280;26987;59.928;30.306;2022-07-23T02:28:04;101062.97;;;21.65;78.27
41254;BME280;26987;59.928;30.306;2022-07-23T02:30:31;101090.78;;;22.09;76.65
41254;BME280;26987;59.928;30.306;2022-07-23T02:33:00;101082.03;;;22.12;76.13
41254;BME280;26987;59.928;30.306;2022-07-23T02:35:29;101085.81;;;22.26;75.42
41254;BME280;26987;59.928;30.306;2022-07-23T02:38:00;101032.38;;;22.04;74.42
41254;BME280;26987;59.928;30.306;2022-07-23T02:40:31;101086.16;;;22.80;73.00
41254;BME280;26987;59.928;30.306;2022-07-23T02:42:59;101075.19;;;23.31;70.66
41254;BME280;26987;59.928;30.306;2022-07-23T02:45:30;101081.50;;;23.91;67.69
41254;BME280;26987;59.928;30.306;2022-07-23T02:47:58;101077.41;;;24.42;65.12
41254;BME280;26987;59.928;30.306;2022-07-23T02:50:26;101066.66;;;24.90;63.17
41254;BME280;26987;59.928;30.306;2022-07-23T02:52:57;101055.84;;;25.32;61.04
41254;BME280;26987;59.928;30.306;2022-07-23T02:55:25;101060.78;;;25.82;58.69
41254;BME280;26987;59.928;30.306;2022-07-23T02:57:54;101060.09;;;26.33;56.92
41254;BME280;26987;59.928;30.306;2022-07-23T03:00:22;101050.75;;;26.71;55.04
41254;BME280;26987;59.928;30.306;2022-07-23T03:02:52;101046.28;;;27.12;53.38
41254;BME280;26987;59.928;30.306;2022-07-23T03:05:20;101039.44;;;27.32;52.27
41254;BME280;26987;59.928;30.306;2022-07-23T03:07:49;101052.97;;;27.75;51.06
41254;BME280;26987;59.928;30.306;2022-07-23T03:10:16;101049.03;;;28.07;49.67
41254;BME280;26987;59.928;30.306;2022-07-23T03:12:45;101039.41;;;28.37;48.59
41254;BME280;26987;59.928;30.306;2022-07-23T03:15:13;101039.44;;;28.72;48.04
41254;BME280;26987;59.928;30.306;2022-07-23T03:17:41;101040.75;;;29.10;46.37
41254;BME280;26987;59.928;30.306;2022-07-23T03:20:11;101031.72;;;29.57;46.10
41254;BME280;26987;59.928;30.306;2022-07-23T03:22:39;101030.91;;;29.96;44.53
41254;BME280;26987;59.928;30.306;2022-07-23T03:25:09;101028.56;;;30.07;44.38
41254;BME280;26987;59.928;30.306;2022-07-23T03:27:37;101031.28;;;30.16;43.57
41254;BME280;26987;59.928;30.306;2022-07-23T03:30:06;101024.91;;;30.45;42.88
41254;BME280;26987;59.928;30.306;2022-07-23T03:32:34;101032.50;;;30.79;42.22
41254;BME280;26987;59.928;30.306;2022-07-23T03:35:02;101026.03;;;31.42;40.99
41254;BME280;26987;59.928;30.306;2022-07-23T03:37:33;101038.06;;;31.59;40.94
41254;BME280;26987;59.928;30.306;2022-07-23T03:40:01;101027.09;;;31.63;40.37
41254;BME280;26987;59.928;30.306;2022-07-23T03:42:29;101023.63;;;31.91;40.00
41254;BME280;26987;59.928;30.306;2022-07-23T03:44:57;101018.69;;;31.84;39.77
41254;BME280;26987;59.928;30.306;2022-07-23T03:47:25;101015.81;;;31.93;39.76
41254;BME280;26987;59.928;30.306;2022-07-23T03:49:53;101028.25;;;32.24;39.06
41254;BME280;26987;59.928;30.306;2022-07-23T03:52:21;101022.16;;;32.59;38.71
41254;BME280;26987;59.928;30.306;2022-07-23T03:54:53;101006.94;;;33.11;37.47
41254;BME280;26987;59.928;30.306;2022-07-23T03:57:23;101006.06;;;33.39;36.91
41254;BME280;26987;59.928;30.306;2022-07-23T03:59:51;100999.88;;;33.45;36.63
41254;BME280;26987;59.928;30.306;2022-07-23T04:02:19;100998.34;;;33.80;36.28
41254;BME280;26987;59.928;30.306;2022-07-23T04:04:47;101002.72;;;34.33;35.08
41254;BME280;26987;59.928;30.306;2022-07-23T04:07:16;101003.69;;;34.61;34.98
41254;BME280;26987;59.928;30.306;2022-07-23T04:09:45;101014.66;;;35.17;34.10
41254;BME280;26987;59.928;30.306;2022-07-23T04:12:14;101008.44;;;35.47;33.26
41254;BME280;26987;59.928;30.306;2022-07-23T04:14:42;101005.19;;;34.98;33.76
41254;BME280;26987;59.928;30.306;2022-07-23T04:17:10;101014.75;;;35.20;33.47
41254;BME280;26987;59.928;30.306;2022-07-23T04:19:39;101002.03;;;35.70;32.90
41254;BME280;26987;59.928;30.306;2022-07-23T04:22:09;100987.63;;;35.41;33.12
41254;BME280;26987;59.928;30.306;2022-07-23T04:24:38;100981.97;;;35.33;33.02
41254;BME280;26987;59.928;30.306;2022-07-23T04:27:08;100977.56;;;35.59;33.11
41254;BME280;26987;59.928;30.306;2022-07-23T04:29:38;100976.19;;;35.73;32.75
41254;BME280;26987;59.928;30.306;2022-07-23T04:32:06;100973.72;;;35.95;32.30
41254;BME280;26987;59.928;30.306;2022-07-23T04:34:34;100968.50;;;36.20;32.15
41254;BME280;26987;59.928;30.306;2022-07-23T04:37:03;100972.88;;;36.52;31.48
41254;BME280;26987;59.928;30.306;2022-07-23T04:39:33;100971.38;;;36.28;31.11
41254;BME280;26987;59.928;30.306;2022-07-23T04:42:01;100965.50;;;36.37;31.23
41254;BME280;26987;59.928;30.306;2022-07-23T04:44:31;100964.41;;;36.45;31.12
41254;BME280;26987;59.928;30.306;2022-07-23T04:47:03;100954.41;;;36.44;31.25
41254;BME280;26987;59.928;30.306;2022-07-23T04:49:31;100952.03;;;36.80;30.60
41254;BME280;26987;59.928;30.306;2022-07-23T04:51:59;100950.06;;;36.84;30.92
41254;BME280;26987;59.928;30.306;2022-07-23T04:54:27;100941.97;;;37.14;30.13
41254;BME280;26987;59.928;30.306;2022-07-23T04:56:55;100948.53;;;37.32;30.33
41254;BME280;26987;59.928;30.306;2022-07-23T04:59:24;100944.63;;;37.48;29.93
41254;BME280;26987;59.928;30.306;2022-07-23T05:02:08;100941.25;;;37.80;29.15
41254;BME280;26987;59.928;30.306;2022-07-23T05:04:36;100935.25;;;37.78;28.92
41254;BME280;26987;59.928;30.306;2022-07-23T05:07:05;100925.06;;;38.19;28.55
41254;BME280;26987;59.928;30.306;2022-07-23T05:09:34;100929.44;;;38.20;29.00
41254;BME280;26987;59.928;30.306;2022-07-23T05:12:02;100923.94;;;38.49;28.61
41254;BME280;26987;59.928;30.306;2022-07-23T05:14:32;100918.34;;;38.49;28.58
41254;BME280;26987;59.928;30.306;2022-07-23T05:17:00;100915.88;;;38.22;28.69
41254;BME280;26987;59.928;30.306;2022-07-23T05:19:30;100899.94;;;38.55;28.20
41254;BME280;26987;59.928;30.306;2022-07-23T05:21:58;100911.97;;;38.56;28.41
41254;BME280;26987;59.928;30.306;2022-07-23T05:24:27;100918.31;;;38.34;28.66
41254;BME280;26987;59.928;30.306;2022-07-23T05:26:55;100908.78;;;38.65;28.53
41254;BME280;26987;59.928;30.306;2022-07-23T05:29:23;100903.97;;;38.61;28.82
41254;BME280;26987;59.928;30.306;2022-07-23T05:31:51;100902.41;;;38.68;28.42
41254;BME280;26987;59.928;30.306;2022-07-23T05:34:20;100902.00;;;38.69;28.08
41254;BME280;26987;59.928;30.306;2022-07-23T05:36:49;100898.00;;;38.81;28.38
41254;BME280;26987;59.928;30.306;2022-07-23T05:39:17;100902.41;;;38.82;28.60
41254;BME280;26987;59.928;30.306;2022-07-23T05:41:46;100902.41;;;38.82;28.61
41254;BME280;26987;59.928;30.306;2022-07-23T05:44:14;100904.41;;;38.93;28.25
41254;BME280;26987;59.928;30.306;2022-07-23T05:46:44;100891.19;;;38.68;28.17
41254;BME280;26987;59.928;30.306;2022-07-23T05:49:17;100884.00;;;39.10;28.10
41254;BME280;26987;59.928;30.306;2022-07-23T05:51:58;100888.34;;;38.60;28.24
41254;BME280;26987;59.928;30.306;2022-07-23T05:54:37;100880.41;;;38.66;28.64
41254;BME280;26987;59.928;30.306;2022-07-23T05:57:06;100876.66;;;38.15;29.11
41254;BME280;26987;59.928;30.306;2022-07-23T05:59:35;100874.22;;;38.06;29.34
41254;BME280;26987;59.928;30.306;2022-07-23T06:02:03;100876.25;;;38.09;29.54
41254;BME280;26987;59.928;30.306;2022-07-23T06:04:31;100862.56;;;37.85;29.57
41254;BME280;26987;59.928;30.306;2022-07-23T06:07:24;100863.81;;;38.03;29.05
41254;BME280;26987;59.928;30.306;2022-07-23T06:09:52;100869.16;;;38.48;29.28
41254;BME280;26987;59.928;30.306;2022-07-23T06:12:20;100865.56;;;38.51;29.11
41254;BME280;26987;59.928;30.306;2022-07-23T06:14:48;100859.19;;;38.69;28.65
41254;BME280;26987;59.928;30.306;2022-07-23T06:17:18;100849.19;;;38.86;28.19
41254;BME280;26987;59.928;30.306;2022-07-23T06:19:47;100861.19;;;38.65;29.31
41254;BME280;26987;59.928;30.306;2022-07-23T06:22:16;100852.34;;;38.48;29.03
41254;BME280;26987;59.928;30.306;2022-07-23T06:24:45;100850.34;;;38.45;28.75
41254;BME280;26987;59.928;30.306;2022-07-23T06:27:13;100845.53;;;38.31;29.59
41254;BME280;26987;59.928;30.306;2022-07-23T06:29:41;100837.53;;;38.40;29.13
41254;BME280;26987;59.928;30.306;2022-07-23T06:32:10;100835.94;;;38.50;28.66
41254;BME280;26987;59.928;30.306;2022-07-23T06:34:38;100841.16;;;38.55;28.68
41254;BME280;26987;59.928;30.306;2022-07-23T06:37:06;100841.16;;;38.48;28.15
41254;BME280;26987;59.928;30.306;2022-07-23T06:39:34;100839.16;;;38.38;28.70
41254;BME280;26987;59.928;30.306;2022-07-23T06:42:03;100841.53;;;38.32;28.36
41254;BME280;26987;59.928;30.306;2022-07-23T06:44:44;100838.72;;;38.21;28.66
41254;BME280;26987;59.928;30.306;2022-07-23T06:47:16;100834.56;;;37.71;28.89
41254;BME280;26987;59.928;30.306;2022-07-23T06:49:44;100826.91;;;37.64;29.01
41254;BME280;26987;59.928;30.306;2022-07-23T06:52:14;100801.03;;;37.82;28.86
41254;BME280;26987;59.928;30.306;2022-07-23T06:54:42;100827.00;;;37.79;29.21
41254;BME280;26987;59.928;30.306;2022-07-23T06:57:12;100826.19;;;37.78;29.42
41254;BME280;26987;59.928;30.306;2022-07-23T06:59:40;100818.00;;;37.37;29.67
41254;BME280;26987;59.928;30.306;2022-07-23T07:02:11;100810.91;;;37.57;29.86
41254;BME280;26987;59.928;30.306;2022-07-23T07:04:39;100817.22;;;37.40;29.63
41254;BME280;26987;59.928;30.306;2022-07-23T07:07:07;100807.31;;;36.93;29.77
41254;BME280;26987;59.928;30.306;2022-07-23T07:09:35;100812.97;;;36.48;31.52
41254;BME280;26987;59.928;30.306;2022-07-23T07:12:03;100820.81;;;36.01;31.88
41254;BME280;26987;59.928;30.306;2022-07-23T07:14:33;100817.19;;;35.66;32.16
41254;BME280;26987;59.928;30.306;2022-07-23T07:17:01;100807.69;;;35.13;32.94
41254;BME280;26987;59.928;30.306;2022-07-23T07:19:28;100801.19;;;34.54;33.45
41254;BME280;26987;59.928;30.306;2022-07-23T07:21:56;100798.13;;;34.16;34.49
41254;BME280;26987;59.928;30.306;2022-07-23T07:24:24;100801.44;;;33.82;34.73
41254;BME280;26987;59.928;30.306;2022-07-23T07:26:52;100802.91;;;33.76;35.00
41254;BME280;26987;59.928;30.306;2022-07-23T07:29:20;100803.81;;;33.44;35.49
41254;BME280;26987;59.928;30.306;2022-07-23T07:31:50;100810.97;;;33.45;35.68
41254;BME280;26987;59.928;30.306;2022-07-23T07:34:18;100805.81;;;33.28;36.01
41254;BME280;26987;59.928;30.306;2022-07-23T07:36:45;100806.50;;;32.89;36.85
41254;BME280;26987;59.928;30.306;2022-07-23T07:39:13;100799.31;;;32.55;37.88
41254;BME280;26987;59.928;30.306;2022-07-23T07:41:41;100788.50;;;32.66;37.75
41254;BME280;26987;59.928;30.306;2022-07-23T07:44:09;100801.56;;;32.66;37.00
41254;BME280;26987;59.928;30.306;2022-07-23T07:46:37;100805.16;;;32.66;37.68
41254;BME280;26987;59.928;30.306;2022-07-23T07:49:07;100798.66;;;32.30;38.49
41254;BME280;26987;59.928;30.306;2022-07-23T07:51:35;100800.94;;;32.12;38.38
41254;BME280;26987;59.928;30.306;2022-07-23T07:54:03;100805.81;;;32.02;38.58
41254;BME280;26987;59.928;30.306;2022-07-23T07:56:31;100800.47;;;31.81;39.42
41254;BME280;26987;59.928;30.306;2022-07-23T07:58:59;100810.69;;;31.64;39.70
41254;BME280;26987;59.928;30.306;2022-07-23T08:01:27;100806.50;;;31.70;39.87
41254;BME280;26987;59.928;30.306;2022-07-23T08:03:55;100800.16;;;31.70;40.60
41254;BME280;26987;59.928;30.306;2022-07-23T08:06:25;100803.00;;;31.74;40.58
41254;BME280;26987;59.928;30.306;2022-07-23T08:08:53;100802.72;;;31.63;40.91
41254;BME280;26987;59.928;30.306;2022-07-23T08:11:21;100803.84;;;31.62;40.93
41254;BME280;26987;59.928;30.306;2022-07-23T08:13:49;100801.13;;;31.49;41.37
41254;BME280;26987;59.928;30.306;2022-07-23T08:16:17;100812.91;;;31.46;42.11
41254;BME280;26987;59.928;30.306;2022-07-23T08:18:45;100810.38;;;31.41;41.95
41254;BME280;26987;59.928;30.306;2022-07-23T08:21:13;100805.53;;;31.38;42.85
41254;BME280;26987;59.928;30.306;2022-07-23T08:23:43;100807.84;;;31.36;42.38
41254;BME280;26987;59.928;30.306;2022-07-23T08:26:11;100811.28;;;31.32;42.77
41254;BME280;26987;59.928;30.306;2022-07-23T08:28:39;100771.41;;;31.08;43.03
41254;BME280;26987;59.928;30.306;2022-07-23T08:31:07;100802.28;;;31.23;43.04
41254;BME280;26987;59.928;30.306;2022-07-23T08:33:37;100800.09;;;31.16;42.82
41254;BME280;26987;59.928;30.306;2022-07-23T08:36:06;100804.03;;;31.15;43.40
41254;BME280;26987;59.928;30.306;2022-07-23T08:38:35;100800.00;;;31.25;43.17
41254;BME280;26987;59.928;30.306;2022-07-23T08:41:07;100799.41;;;31.32;42.81
41254;BME280;26987;59.928;30.306;2022-07-23T08:43:35;100799.41;;;31.32;42.47
41254;BME280;26987;59.928;30.306;2022-07-23T08:46:04;100801.50;;;31.10;43.18
41254;BME280;26987;59.928;30.306;2022-07-23T08:48:34;100794.34;;;31.09;42.93
41254;BME280;26987;59.928;30.306;2022-07-23T08:51:04;100793.66;;;31.12;43.15
41254;BME280;26987;59.928;30.306;2022-07-23T08:53:33;100784.31;;;31.04;43.11
41254;BME280;26987;59.928;30.306;2022-07-23T08:56:04;100791.44;;;31.18;42.76
41254;BME280;26987;59.928;30.306;2022-07-23T08:58:33;100793.66;;;31.12;42.62
41254;BME280;26987;59.928;30.306;2022-07-23T09:01:02;100787.06;;;31.04;42.62
41254;BME280;26987;59.928;30.306;2022-07-23T09:03:32;100794.56;;;31.16;42.62
41254;BME280;26987;59.928;30.306;2022-07-23T09:06:00;100783.97;;;31.06;43.07
41254;BME280;26987;59.928;30.306;2022-07-23T09:08:35;100792.16;;;31.02;44.08
41254;BME280;26987;59.928;30.306;2022-07-23T09:11:05;100788.69;;;30.80;43.67
41254;BME280;26987;59.928;30.306;2022-07-23T09:13:37;100786.16;;;30.88;43.22
41254;BME280;26987;59.928;30.306;2022-07-23T09:16:07;100792.34;;;30.72;43.21
41254;BME280;26987;59.928;30.306;2022-07-23T09:18:42;100775.28;;;30.57;42.49
41254;BME280;26987;59.928;30.306;2022-07-23T09:21:19;100777.94;;;30.54;42.58
41254;BME280;26987;59.928;30.306;2022-07-23T09:23:58;100766.91;;;30.20;42.45
41254;BME280;26987;59.928;30.306;2022-07-23T09:26:33;100771.09;;;30.39;43.02
41254;BME280;26987;59.928;30.306;2022-07-23T09:29:07;100758.78;;;30.36;43.02
41254;BME280;26987;59.928;30.306;2022-07-23T09:31:50;100771.91;;;30.52;42.46
41254;BME280;26987;59.928;30.306;2022-07-23T09:34:21;100773.81;;;30.26;42.73
41254;BME280;26987;59.928;30.306;2022-07-23T09:36:50;100758.78;;;30.36;42.54
41254;BME280;26987;59.928;30.306;2022-07-23T09:39:25;100676.28;;;29.92;42.45
41254;BME280;26987;59.928;30.306;2022-07-23T09:41:55;100762.47;;;30.65;42.06
41254;BME280;26987;59.928;30.306;2022-07-23T09:44:23;100760.56;;;31.03;41.00
41254;BME280;26987;59.928;30.306;2022-07-23T09:46:58;100767.56;;;31.38;40.48
41254;BME280;26987;59.928;30.306;2022-07-23T09:49:26;100765.81;;;31.33;40.56
41254;BME280;26987;59.928;30.306;2022-07-23T09:51:56;100772.78;;;31.02;41.07
41254;BME280;26987;59.928;30.306;2022-07-23T09:54:30;100769.31;;;30.68;41.47
41254;BME280;26987;59.928;30.306;2022-07-23T09:57:03;100719.72;;;30.38;41.23
41254;BME280;26987;59.928;30.306;2022-07-23T09:59:34;100745.75;;;30.24;42.06
41254;BME280;26987;59.928;30.306;2022-07-23T10:02:04;100749.19;;;30.21;42.52
41254;BME280;26987;59.928;30.306;2022-07-23T10:04:39;100743.78;;;30.37;42.24
41254;BME280;26987;59.928;30.306;2022-07-23T10:07:26;100738.63;;;30.48;41.63
41254;BME280;26987;59.928;30.306;2022-07-23T10:10:15;100742.78;;;30.67;40.91
41254;BME280;26987;59.928;30.306;2022-07-23T10:13:17;100731.50;;;30.72;40.75
41254;BME280;26987;59.928;30.306;2022-07-23T10:16:11;100731.97;;;30.87;40.67
41254;BME280;26987;59.928;30.306;2022-07-23T10:18:39;100725.53;;;30.82;40.17
41254;BME280;26987;59.928;30.306;2022-07-23T10:21:08;100729.81;;;30.80;39.86
41254;BME280;26987;59.928;30.306;2022-07-23T10:23:41;100724.63;;;30.78;39.79
41254;BME280;26987;59.928;30.306;2022-07-23T10:26:13;100716.97;;;30.88;39.78
41254;BME280;26987;59.928;30.306;2022-07-23T10:29:05;100725.72;;;31.15;39.05
41254;BME280;26987;59.928;30.306;2022-07-23T10:31:45;100688.31;;;30.80;39.49
41254;BME280;26987;59.928;30.306;2022-07-23T10:34:18;100722.72;;;31.07;39.53
41254;BME280;26987;59.928;30.306;2022-07-23T10:36:52;100721.59;;;31.08;39.28
41254;BME280;26987;59.928;30.306;2022-07-23T10:42:22;100717.66;;;31.09;39.17
41254;BME280;26987;59.928;30.306;2022-07-23T10:45:22;100729.47;;;31.48;38.48
41254;BME280;26987;59.928;30.306;2022-07-23T10:47:50;100731.91;;;31.49;38.46
41254;BME280;26987;59.928;30.306;2022-07-23T10:50:23;100726.78;;;31.51;38.08
41254;BME280;26987;59.928;30.306;2022-07-23T10:53:12;100741.44;;;31.64;38.21
41254;BME280;26987;59.928;30.306;2022-07-23T10:55:44;100725.22;;;31.38;38.04
41254;BME280;26987;59.928;30.306;2022-07-23T10:58:18;100729.38;;;31.31;38.67
41254;BME280;26987;59.928;30.306;2022-07-23T11:00:48;100737.25;;;31.17;38.67
41254;BME280;26987;59.928;30.306;2022-07-23T11:03:40;100744.84;;;31.32;38.95
41254;BME280;26987;59.928;30.306;2022-07-23T11:09:28;100739.91;;;30.76;38.95
41254;BME280;26987;59.928;30.306;2022-07-23T11:15:04;100741.41;;;30.14;40.32
41254;BME280;26987;59.928;30.306;2022-07-23T11:17:35;100758.97;;;29.54;43.06
41254;BME280;26987;59.928;30.306;2022-07-23T11:20:18;100735.44;;;28.75;45.98
41254;BME280;26987;59.928;30.306;2022-07-23T11:22:48;100758.81;;;27.77;49.76
41254;BME280;26987;59.928;30.306;2022-07-23T11:25:34;100780.63;;;27.55;50.68
41254;BME280;26987;59.928;30.306;2022-07-23T11:28:16;100774.63;;;26.95;52.91
41254;BME280;26987;59.928;30.306;2022-07-23T11:30:47;100779.88;;;27.05;51.07
41254;BME280;26987;59.928;30.306;2022-07-23T11:33:21;100765.31;;;26.18;56.58
41254;BME280;26987;59.928;30.306;2022-07-23T11:36:00;100769.50;;;26.16;58.59
41254;BME280;26987;59.928;30.306;2022-07-23T11:38:31;100755.97;;;25.74;60.31
41254;BME280;26987;59.928;30.306;2022-07-23T11:40:59;100757.81;;;25.64;61.43
41254;BME280;26987;59.928;30.306;2022-07-23T11:43:27;100764.63;;;25.53;62.53
41254;BME280;26987;59.928;30.306;2022-07-23T11:45:58;100767.16;;;25.49;62.76
41254;BME280;26987;59.928;30.306;2022-07-23T11:48:29;100781.94;;;25.39;63.81
41254;BME280;26987;59.928;30.306;2022-07-23T11:50:58;100763.44;;;25.17;65.96
41254;BME280;26987;59.928;30.306;2022-07-23T11:53:27;100769.94;;;24.93;67.89
41254;BME280;26987;59.928;30.306;2022-07-23T11:56:03;100756.59;;;24.72;69.25
41254;BME280;26987;59.928;30.306;2022-07-23T11:58:31;100786.88;;;24.67;69.29
41254;BME280;26987;59.928;30.306;2022-07-23T12:01:00;100794.31;;;24.47;68.45
41254;BME280;26987;59.928;30.306;2022-07-23T12:03:29;100809.88;;;24.33;68.92
41254;BME280;26987;59.928;30.306;2022-07-23T12:05:58;100798.78;;;24.04;70.66
41254;BME280;26987;59.928;30.306;2022-07-23T12:08:27;100806.63;;;23.92;71.93
41254;BME280;26987;59.928;30.306;2022-07-23T12:10:57;100799.59;;;23.66;74.21
41254;BME280;26987;59.928;30.306;2022-07-23T12:13:25;100818.84;;;23.61;75.99
41254;BME280;26987;59.928;30.306;2022-07-23T12:15:56;100819.31;;;23.44;77.49
41254;BME280;26987;59.928;30.306;2022-07-23T12:18:29;100823.09;;;23.48;78.95
41254;BME280;26987;59.928;30.306;2022-07-23T12:20:57;100817.47;;;23.39;80.08
41254;BME280;26987;59.928;30.306;2022-07-23T12:23:30;100799.53;;;23.52;81.16
41254;BME280;26987;59.928;30.306;2022-07-23T12:26:01;100791.38;;;23.47;80.70
41254;BME280;26987;59.928;30.306;2022-07-23T12:28:31;100777.78;;;23.42;80.67
41254;BME280;26987;59.928;30.306;2022-07-23T12:31:00;100751.69;;;23.25;80.44
41254;BME280;26987;59.928;30.306;2022-07-23T12:33:31;100766.22;;;23.45;80.78
41254;BME280;26987;59.928;30.306;2022-07-23T12:36:02;100777.50;;;23.63;79.35
41254;BME280;26987;59.928;30.306;2022-07-23T12:38:37;100772.69;;;23.74;77.13
41254;BME280;26987;59.928;30.306;2022-07-23T12:41:05;100765.22;;;23.79;75.03
41254;BME280;26987;59.928;30.306;2022-07-23T12:43:36;100766.56;;;23.82;74.88
41254;BME280;26987;59.928;30.306;2022-07-23T12:46:06;100763.81;;;24.01;72.79
41254;BME280;26987;59.928;30.306;2022-07-23T12:48:37;100744.63;;;24.01;72.26
41254;BME280;26987;59.928;30.306;2022-07-23T12:51:06;100749.06;;;24.16;71.09
41254;BME280;26987;59.928;30.306;2022-07-23T12:53:38;100746.13;;;24.13;69.77
41254;BME280;26987;59.928;30.306;2022-07-23T12:56:09;100762.31;;;24.28;69.79
41254;BME280;26987;59.928;30.306;2022-07-23T12:58:43;100773.19;;;24.34;70.16
41254;BME280;26987;59.928;30.306;2022-07-23T13:01:22;100760.81;;;24.36;69.67
41254;BME280;26987;59.928;30.306;2022-07-23T13:03:58;100771.41;;;24.24;70.63
41254;BME280;26987;59.928;30.306;2022-07-23T13:06:27;100764.38;;;23.98;71.98